Belle Prairie, Nebraska
Current Conditions -  °F | °C
As of 1:55 AM on Saturday 20 Dec 2014 (Local Time) from KHJH Reporting Station
Moderate Fog Moderate Fog  
Wind Chill: 25°   Ceiling: 100
Heat Index: 32°   Visibility: 0.5mi
Dew Point: 31°   Wind: 8mph
Humidity: 95%   Direction: 200°SSW
Pressure: 30.06"   Gusts: NA
Location:  40.3936°N, 97.5387°W
Report Text: KHJH 200755Z AUTO 20007KT 1/2SM FG OVC001 00/M01 A3006 RMK AO2 T00001007
Loading
Personal Weather Stations






























Interactive Weather Map New forecast layout! Learn more

10-Day Weather Forecast

Advertisements
Track Severe Weather on mobile